IXC weather

Chandigarh Airport
Chandigarh, Chandigarh, India

Public forecast

Using degrees Celsius for public forecast. Weather courtesy of forecast.io.

METAR (pilot weather report)

Retrieved 2019/06/25 09:30 UTC (7 minutes ago):

VICG 250930Z 32008KT 6000 SCT030 FEW030TCU BKN090 35/23 Q1003 NOSIG

TAF (pilot weather forecast)

Retrieved 2019/06/25 06:33 UTC (3 hours ago):

TAF VICG 250330Z 2506/2518 35010KT 6000 FEW030 SCT090 TEMPO 2510/2514 30015G25KT 4000 TSRA/BLDU FEW030 FEW030TCU/CB SCT090